sensor_id;sensor_type;location;lat;lon;timestamp;pressure;altitude;pressure_sealevel;temperature;humidity
12636;BME280;6383;50.830;7.210;2022-08-19T00:01:58;100526.97;;;21.29;69.81
12636;BME280;6383;50.830;7.210;2022-08-19T00:04:29;100526.56;;;21.27;69.97
12636;BME280;6383;50.830;7.210;2022-08-19T00:06:59;100520.59;;;21.25;70.38
12636;BME280;6383;50.830;7.210;2022-08-19T00:09:30;100515.44;;;21.23;70.14
12636;BME280;6383;50.830;7.210;2022-08-19T00:11:59;100520.56;;;21.21;70.18
12636;BME280;6383;50.830;7.210;2022-08-19T00:14:29;100520.13;;;21.19;70.07
12636;BME280;6383;50.830;7.210;2022-08-19T00:17:00;100527.59;;;21.19;70.08
12636;BME280;6383;50.830;7.210;2022-08-19T00:19:30;100526.81;;;21.18;70.09
12636;BME280;6383;50.830;7.210;2022-08-19T00:21:59;100534.69;;;21.16;70.25
12636;BME280;6383;50.830;7.210;2022-08-19T00:24:31;100532.28;;;21.15;70.20
12636;BME280;6383;50.830;7.210;2022-08-19T00:26:59;100540.53;;;21.11;70.24
12636;BME280;6383;50.830;7.210;2022-08-19T00:29:29;100538.13;;;21.09;70.32
12636;BME280;6383;50.830;7.210;2022-08-19T00:31:58;100540.47;;;21.07;70.30
12636;BME280;6383;50.830;7.210;2022-08-19T00:34:27;100535.69;;;21.04;70.47
12636;BME280;6383;50.830;7.210;2022-08-19T00:36:57;100534.03;;;21.00;70.41
12636;BME280;6383;50.830;7.210;2022-08-19T00:39:27;100537.53;;;20.97;70.50
12636;BME280;6383;50.830;7.210;2022-08-19T00:41:57;100543.81;;;20.94;70.38
12636;BME280;6383;50.830;7.210;2022-08-19T00:44:28;100545.38;;;20.91;70.49
12636;BME280;6383;50.830;7.210;2022-08-19T00:46:58;100548.88;;;20.88;70.72
12636;BME280;6383;50.830;7.210;2022-08-19T00:49:30;100539.69;;;20.84;70.67
12636;BME280;6383;50.830;7.210;2022-08-19T00:52:03;100544.38;;;20.80;70.74
12636;BME280;6383;50.830;7.210;2022-08-19T00:54:32;100538.00;;;20.76;71.01
12636;BME280;6383;50.830;7.210;2022-08-19T00:57:03;100541.94;;;20.75;70.48
12636;BME280;6383;50.830;7.210;2022-08-19T00:59:35;100545.06;;;20.73;70.89
12636;BME280;6383;50.830;7.210;2022-08-19T01:04:34;100542.59;;;20.68;71.17
12636;BME280;6383;50.830;7.210;2022-08-19T01:07:03;100541.00;;;20.67;71.39
12636;BME280;6383;50.830;7.210;2022-08-19T01:09:33;100544.50;;;20.64;71.23
12636;BME280;6383;50.830;7.210;2022-08-19T01:12:03;100543.69;;;20.64;71.14
12636;BME280;6383;50.830;7.210;2022-08-19T01:14:31;100536.16;;;20.61;71.87
12636;BME280;6383;50.830;7.210;2022-08-19T01:17:00;100538.13;;;20.60;71.69
12636;BME280;6383;50.830;7.210;2022-08-19T01:19:32;100522.69;;;20.59;71.43
12636;BME280;6383;50.830;7.210;2022-08-19T01:22:05;100525.03;;;20.57;71.46
12636;BME280;6383;50.830;7.210;2022-08-19T01:24:37;100521.88;;;20.36;71.39
12636;BME280;6383;50.830;7.210;2022-08-19T01:27:07;100519.34;;;20.50;72.07
12636;BME280;6383;50.830;7.210;2022-08-19T01:29:39;100517.41;;;20.51;72.48
12636;BME280;6383;50.830;7.210;2022-08-19T01:32:11;100526.50;;;20.51;72.69
12636;BME280;6383;50.830;7.210;2022-08-19T01:34:40;100524.88;;;20.50;72.50
12636;BME280;6383;50.830;7.210;2022-08-19T01:37:11;100519.34;;;20.50;72.60
12636;BME280;6383;50.830;7.210;2022-08-19T01:39:42;100519.34;;;20.50;72.59
12636;BME280;6383;50.830;7.210;2022-08-19T01:42:11;100516.16;;;20.48;72.61
12636;BME280;6383;50.830;7.210;2022-08-19T01:44:40;100524.88;;;20.50;72.31
12636;BME280;6383;50.830;7.210;2022-08-19T01:47:09;100527.63;;;20.47;72.58
12636;BME280;6383;50.830;7.210;2022-08-19T01:49:38;100523.69;;;20.48;72.55
12636;BME280;6383;50.830;7.210;2022-08-19T01:52:08;100525.22;;;20.45;72.19
12636;BME280;6383;50.830;7.210;2022-08-19T01:54:37;100527.53;;;20.43;72.16
12636;BME280;6383;50.830;7.210;2022-08-19T01:57:10;100524.34;;;20.41;72.07
12636;BME280;6383;50.830;7.210;2022-08-19T01:59:42;100544.41;;;20.38;72.17
12636;BME280;6383;50.830;7.210;2022-08-19T02:02:13;100546.75;;;20.36;72.63
12636;BME280;6383;50.830;7.210;2022-08-19T02:04:42;100545.91;;;20.35;72.67
12636;BME280;6383;50.830;7.210;2022-08-19T02:07:11;100540.75;;;20.34;72.44
12636;BME280;6383;50.830;7.210;2022-08-19T02:09:41;100531.66;;;20.33;73.03
12636;BME280;6383;50.830;7.210;2022-08-19T02:12:11;100523.38;;;20.33;73.10
12636;BME280;6383;50.830;7.210;2022-08-19T02:14:40;100525.72;;;20.31;72.76
12636;BME280;6383;50.830;7.210;2022-08-19T02:17:09;100517.81;;;20.30;73.01
12636;BME280;6383;50.830;7.210;2022-08-19T02:19:38;100512.63;;;20.28;73.19
12636;BME280;6383;50.830;7.210;2022-08-19T02:22:08;100522.88;;;20.28;73.26
12636;BME280;6383;50.830;7.210;2022-08-19T02:24:37;100511.03;;;20.27;73.12
12636;BME280;6383;50.830;7.210;2022-08-19T02:27:06;100511.84;;;20.28;72.99
12636;BME280;6383;50.830;7.210;2022-08-19T02:29:37;100524.06;;;20.27;73.42
12636;BME280;6383;50.830;7.210;2022-08-19T02:32:06;100522.09;;;20.27;73.39
12636;BME280;6383;50.830;7.210;2022-08-19T02:34:35;100526.03;;;20.26;73.07
12636;BME280;6383;50.830;7.210;2022-08-19T02:37:05;100525.59;;;20.24;73.34
12636;BME280;6383;50.830;7.210;2022-08-19T02:39:54;100537.38;;;20.21;72.99
12636;BME280;6383;50.830;7.210;2022-08-19T02:42:22;100542.84;;;20.18;72.98
12636;BME280;6383;50.830;7.210;2022-08-19T02:44:53;100542.78;;;19.95;72.58
12636;BME280;6383;50.830;7.210;2022-08-19T02:47:24;100537.09;;;20.07;73.13
12636;BME280;6383;50.830;7.210;2022-08-19T02:49:53;100538.25;;;20.06;73.20
12636;BME280;6383;50.830;7.210;2022-08-19T02:52:22;100540.66;;;20.07;73.52
12636;BME280;6383;50.830;7.210;2022-08-19T02:54:51;100540.66;;;20.07;73.89
12636;BME280;6383;50.830;7.210;2022-08-19T02:57:20;100540.66;;;20.07;73.24
12636;BME280;6383;50.830;7.210;2022-08-19T02:59:50;100541.00;;;20.06;73.95
12636;BME280;6383;50.830;7.210;2022-08-19T03:02:20;100542.19;;;20.05;73.70
12636;BME280;6383;50.830;7.210;2022-08-19T03:04:49;100542.94;;;20.02;74.04
12636;BME280;6383;50.830;7.210;2022-08-19T03:07:19;100529.91;;;20.02;73.57
12636;BME280;6383;50.830;7.210;2022-08-19T03:09:48;100536.59;;;20.01;73.72
12636;BME280;6383;50.830;7.210;2022-08-19T03:12:17;100544.88;;;20.01;73.94
12636;BME280;6383;50.830;7.210;2022-08-19T03:14:46;100549.25;;;20.02;73.98
12636;BME280;6383;50.830;7.210;2022-08-19T03:17:15;100544.88;;;20.01;73.61
12636;BME280;6383;50.830;7.210;2022-08-19T03:19:46;100551.22;;;20.02;74.04
12636;BME280;6383;50.830;7.210;2022-08-19T03:22:15;100549.63;;;20.01;73.88
12636;BME280;6383;50.830;7.210;2022-08-19T03:24:44;100530.28;;;20.01;73.86
12636;BME280;6383;50.830;7.210;2022-08-19T03:27:13;100539.72;;;20.00;74.18
12636;BME280;6383;50.830;7.210;2022-08-19T03:29:43;100538.13;;;19.99;74.30
12636;BME280;6383;50.830;7.210;2022-08-19T03:32:12;100550.34;;;19.98;74.41
12636;BME280;6383;50.830;7.210;2022-08-19T03:34:41;100554.69;;;19.99;73.91
12636;BME280;6383;50.830;7.210;2022-08-19T03:37:12;100555.50;;;19.99;74.15
12636;BME280;6383;50.830;7.210;2022-08-19T03:39:41;100561.03;;;19.99;73.94
12636;BME280;6383;50.830;7.210;2022-08-19T03:42:11;100559.44;;;19.98;74.09
12636;BME280;6383;50.830;7.210;2022-08-19T03:44:40;100560.22;;;19.99;73.81
12636;BME280;6383;50.830;7.210;2022-08-19T03:47:12;100553.91;;;19.98;74.25
12636;BME280;6383;50.830;7.210;2022-08-19T03:49:44;100549.91;;;19.96;74.41
12636;BME280;6383;50.830;7.210;2022-08-19T03:52:15;100554.63;;;19.95;74.38
12636;BME280;6383;50.830;7.210;2022-08-19T03:54:44;100554.19;;;19.93;74.59
12636;BME280;6383;50.830;7.210;2022-08-19T03:57:13;100556.50;;;19.91;74.58
12636;BME280;6383;50.830;7.210;2022-08-19T03:59:42;100554.09;;;19.90;74.10
12636;BME280;6383;50.830;7.210;2022-08-19T04:02:13;100560.00;;;19.88;74.43
12636;BME280;6383;50.830;7.210;2022-08-19T04:04:43;100555.66;;;19.87;74.35
12636;BME280;6383;50.830;7.210;2022-08-19T04:07:15;100561.28;;;20.52;72.01
12636;BME280;6383;50.830;7.210;2022-08-19T04:09:45;100566.94;;;20.82;70.72
12636;BME280;6383;50.830;7.210;2022-08-19T04:12:14;100569.44;;;20.45;71.84
12636;BME280;6383;50.830;7.210;2022-08-19T04:14:43;100570.69;;;20.09;72.11
12636;BME280;6383;50.830;7.210;2022-08-19T04:17:12;100572.66;;;20.08;72.97
12636;BME280;6383;50.830;7.210;2022-08-19T04:19:42;100577.59;;;19.99;73.31
12636;BME280;6383;50.830;7.210;2022-08-19T04:22:12;100568.00;;;19.93;73.17
12636;BME280;6383;50.830;7.210;2022-08-19T04:24:42;100571.47;;;19.90;73.10
12636;BME280;6383;50.830;7.210;2022-08-19T04:27:11;100567.06;;;19.86;73.60
12636;BME280;6383;50.830;7.210;2022-08-19T04:29:41;100573.31;;;19.83;74.15
12636;BME280;6383;50.830;7.210;2022-08-19T04:32:10;100574.03;;;19.80;74.30
12636;BME280;6383;50.830;7.210;2022-08-19T04:34:43;100576.34;;;19.78;74.39
12636;BME280;6383;50.830;7.210;2022-08-19T04:37:12;100575.91;;;19.76;73.93
12636;BME280;6383;50.830;7.210;2022-08-19T04:39:43;100573.50;;;19.74;74.38
12636;BME280;6383;50.830;7.210;2022-08-19T04:42:29;100568.72;;;19.71;73.96
12636;BME280;6383;50.830;7.210;2022-08-19T04:45:09;100575.41;;;19.70;74.47
12636;BME280;6383;50.830;7.210;2022-08-19T04:47:41;100580.94;;;19.70;74.71
12636;BME280;6383;50.830;7.210;2022-08-19T04:50:10;100583.25;;;19.68;74.39
12636;BME280;6383;50.830;7.210;2022-08-19T04:52:39;100584.03;;;19.68;74.63
12636;BME280;6383;50.830;7.210;2022-08-19T04:55:11;100594.28;;;19.68;74.70
12636;BME280;6383;50.830;7.210;2022-08-19T04:57:41;100591.44;;;19.64;74.34
12636;BME280;6383;50.830;7.210;2022-08-19T05:00:11;100608.81;;;19.65;74.22
12636;BME280;6383;50.830;7.210;2022-08-19T05:02:40;100598.47;;;19.62;74.04
12636;BME280;6383;50.830;7.210;2022-08-19T05:05:10;100603.56;;;19.60;74.46
12636;BME280;6383;50.830;7.210;2022-08-19T05:07:40;100597.63;;;19.58;74.64
12636;BME280;6383;50.830;7.210;2022-08-19T05:10:14;100605.91;;;19.58;74.27
12636;BME280;6383;50.830;7.210;2022-08-19T05:12:43;100602.69;;;19.56;74.27
12636;BME280;6383;50.830;7.210;2022-08-19T05:15:12;100610.19;;;19.55;74.99
12636;BME280;6383;50.830;7.210;2022-08-19T05:17:41;100612.13;;;19.55;74.94
12636;BME280;6383;50.830;7.210;2022-08-19T05:20:30;100608.56;;;19.54;75.21
12636;BME280;6383;50.830;7.210;2022-08-19T05:23:17;100611.34;;;19.54;75.13
12636;BME280;6383;50.830;7.210;2022-08-19T05:25:48;100603.84;;;19.55;75.26
12636;BME280;6383;50.830;7.210;2022-08-19T05:28:18;100610.97;;;19.56;75.87
12636;BME280;6383;50.830;7.210;2022-08-19T05:30:47;100609.38;;;19.55;75.47
12636;BME280;6383;50.830;7.210;2022-08-19T05:33:18;100615.34;;;19.57;75.84
12636;BME280;6383;50.830;7.210;2022-08-19T05:35:48;100615.75;;;19.59;75.32
12636;BME280;6383;50.830;7.210;2022-08-19T05:38:18;100618.16;;;19.60;75.55
12636;BME280;6383;50.830;7.210;2022-08-19T05:40:48;100619.31;;;19.59;76.03
12636;BME280;6383;50.830;7.210;2022-08-19T05:43:17;100620.13;;;19.60;75.57
12636;BME280;6383;50.830;7.210;2022-08-19T05:45:47;100614.59;;;19.60;75.94
12636;BME280;6383;50.830;7.210;2022-08-19T05:48:18;100617.75;;;19.58;75.85
12636;BME280;6383;50.830;7.210;2022-08-19T05:50:48;100612.59;;;19.57;75.83
12636;BME280;6383;50.830;7.210;2022-08-19T05:53:18;100618.09;;;19.57;75.90
12636;BME280;6383;50.830;7.210;2022-08-19T05:55:49;100620.50;;;19.58;75.79
12636;BME280;6383;50.830;7.210;2022-08-19T05:58:18;100624.03;;;19.59;76.41
12636;BME280;6383;50.830;7.210;2022-08-19T06:00:47;100620.56;;;19.62;76.65
12636;BME280;6383;50.830;7.210;2022-08-19T06:03:16;100619.78;;;19.61;76.44
12636;BME280;6383;50.830;7.210;2022-08-19T06:05:45;100618.97;;;19.61;76.83
12636;BME280;6383;50.830;7.210;2022-08-19T06:08:14;100622.09;;;19.59;76.71
12636;BME280;6383;50.830;7.210;2022-08-19T06:10:46;100621.28;;;19.59;77.01
12636;BME280;6383;50.830;7.210;2022-08-19T06:13:16;100621.22;;;19.55;76.69
12636;BME280;6383;50.830;7.210;2022-08-19T06:15:47;100623.19;;;19.55;77.03
12636;BME280;6383;50.830;7.210;2022-08-19T06:18:16;100630.31;;;19.56;77.40
12636;BME280;6383;50.830;7.210;2022-08-19T06:20:45;100622.81;;;19.56;78.04
12636;BME280;6383;50.830;7.210;2022-08-19T06:23:15;100630.75;;;19.58;78.12
12636;BME280;6383;50.830;7.210;2022-08-19T06:25:44;100629.22;;;19.60;78.23
12636;BME280;6383;50.830;7.210;2022-08-19T06:28:13;100631.97;;;19.60;78.41
12636;BME280;6383;50.830;7.210;2022-08-19T06:30:43;100634.72;;;19.60;78.98
12636;BME280;6383;50.830;7.210;2022-08-19T06:33:13;100636.41;;;19.65;78.93
12636;BME280;6383;50.830;7.210;2022-08-19T06:35:42;100633.75;;;19.68;78.86
12636;BME280;6383;50.830;7.210;2022-08-19T06:38:11;100635.44;;;19.73;79.28
12636;BME280;6383;50.830;7.210;2022-08-19T06:40:40;100639.88;;;19.78;79.09
12636;BME280;6383;50.830;7.210;2022-08-19T06:43:09;100635.94;;;19.79;79.16
12636;BME280;6383;50.830;7.210;2022-08-19T06:45:38;100637.63;;;19.83;78.97
12636;BME280;6383;50.830;7.210;2022-08-19T06:48:09;100629.84;;;19.89;79.39
12636;BME280;6383;50.830;7.210;2022-08-19T06:50:38;100629.94;;;19.92;79.80
12636;BME280;6383;50.830;7.210;2022-08-19T06:53:07;100629.28;;;19.99;79.69
12636;BME280;6383;50.830;7.210;2022-08-19T06:55:36;100645.66;;;20.07;79.70
12636;BME280;6383;50.830;7.210;2022-08-19T06:58:05;100639.81;;;19.93;79.28
12636;BME280;6383;50.830;7.210;2022-08-19T07:00:33;100643.41;;;20.13;80.50
12636;BME280;6383;50.830;7.210;2022-08-19T07:03:01;100633.28;;;20.21;80.48
12636;BME280;6383;50.830;7.210;2022-08-19T07:05:31;100642.97;;;20.30;79.85
12636;BME280;6383;50.830;7.210;2022-08-19T07:08:01;100648.66;;;20.37;79.83
12636;BME280;6383;50.830;7.210;2022-08-19T07:10:31;100655.03;;;20.22;79.44
12636;BME280;6383;50.830;7.210;2022-08-19T07:13:00;100655.09;;;20.41;80.40
12636;BME280;6383;50.830;7.210;2022-08-19T07:15:29;100651.72;;;20.52;80.33
12636;BME280;6383;50.830;7.210;2022-08-19T07:17:58;100657.03;;;20.60;80.04
12636;BME280;6383;50.830;7.210;2022-08-19T07:20:27;100653.16;;;20.65;80.12
12636;BME280;6383;50.830;7.210;2022-08-19T07:22:58;100654.09;;;20.72;80.16
12636;BME280;6383;50.830;7.210;2022-08-19T07:25:27;100657.34;;;20.78;79.89
12636;BME280;6383;50.830;7.210;2022-08-19T07:27:56;100661.00;;;20.82;79.72
12636;BME280;6383;50.830;7.210;2022-08-19T07:30:26;100662.31;;;20.88;80.00
12636;BME280;6383;50.830;7.210;2022-08-19T07:32:55;100667.91;;;20.92;80.21
12636;BME280;6383;50.830;7.210;2022-08-19T07:35:24;100673.91;;;20.97;80.27
12636;BME280;6383;50.830;7.210;2022-08-19T07:37:53;100669.69;;;21.03;80.85
12636;BME280;6383;50.830;7.210;2022-08-19T07:40:24;100673.38;;;21.11;80.43
12636;BME280;6383;50.830;7.210;2022-08-19T07:42:56;100675.84;;;21.16;80.54
12636;BME280;6383;50.830;7.210;2022-08-19T07:45:25;100673.97;;;21.20;80.39
12636;BME280;6383;50.830;7.210;2022-08-19T07:47:56;100688.28;;;21.26;80.50
12636;BME280;6383;50.830;7.210;2022-08-19T07:50:25;100680.47;;;21.31;79.91
12636;BME280;6383;50.830;7.210;2022-08-19T07:52:54;100678.59;;;21.35;80.20
12636;BME280;6383;50.830;7.210;2022-08-19T07:55:26;100670.75;;;21.41;80.00
12636;BME280;6383;50.830;7.210;2022-08-19T07:57:55;100675.59;;;21.48;80.40
12636;BME280;6383;50.830;7.210;2022-08-19T08:00:25;100672.50;;;21.53;80.10
12636;BME280;6383;50.830;7.210;2022-08-19T08:02:54;100675.78;;;21.58;79.94
12636;BME280;6383;50.830;7.210;2022-08-19T08:05:24;100677.44;;;21.63;80.18
12636;BME280;6383;50.830;7.210;2022-08-19T08:08:11;100680.66;;;21.68;80.05
12636;BME280;6383;50.830;7.210;2022-08-19T08:11:00;100678.81;;;21.76;79.57
12636;BME280;6383;50.830;7.210;2022-08-19T08:13:29;100687.59;;;21.81;79.20
12636;BME280;6383;50.830;7.210;2022-08-19T08:15:58;100679.75;;;21.87;79.21
12636;BME280;6383;50.830;7.210;2022-08-19T08:18:28;100679.88;;;21.94;79.02
12636;BME280;6383;50.830;7.210;2022-08-19T08:20:58;100674.03;;;21.99;79.03
12636;BME280;6383;50.830;7.210;2022-08-19T08:23:27;100682.03;;;22.04;78.79
12636;BME280;6383;50.830;7.210;2022-08-19T08:25:59;100678.97;;;22.13;78.75
12636;BME280;6383;50.830;7.210;2022-08-19T08:28:30;100679.00;;;22.16;78.05
12636;BME280;6383;50.830;7.210;2022-08-19T08:30:59;100677.09;;;22.21;77.89
12636;BME280;6383;50.830;7.210;2022-08-19T08:33:29;100673.22;;;22.25;77.61
12636;BME280;6383;50.830;7.210;2022-08-19T08:35:58;100674.03;;;22.29;77.29
12636;BME280;6383;50.830;7.210;2022-08-19T08:38:28;100675.31;;;22.35;77.28
12636;BME280;6383;50.830;7.210;2022-08-19T08:41:06;100672.59;;;22.39;77.46
12636;BME280;6383;50.830;7.210;2022-08-19T08:43:40;100678.19;;;22.46;77.52
12636;BME280;6383;50.830;7.210;2022-08-19T08:46:13;100680.66;;;22.51;77.30
12636;BME280;6383;50.830;7.210;2022-08-19T08:48:50;100678.28;;;22.53;76.78
12636;BME280;6383;50.830;7.210;2022-08-19T08:51:25;100685.88;;;22.60;76.78
12636;BME280;6383;50.830;7.210;2022-08-19T08:54:00;100679.22;;;22.64;76.63
12636;BME280;6383;50.830;7.210;2022-08-19T08:56:32;100690.38;;;22.71;75.97
12636;BME280;6383;50.830;7.210;2022-08-19T08:59:04;100693.66;;;22.77;75.55
12636;BME280;6383;50.830;7.210;2022-08-19T09:01:41;100682.59;;;22.80;75.28
12636;BME280;6383;50.830;7.210;2022-08-19T09:04:18;100685.81;;;22.86;74.70
12636;BME280;6383;50.830;7.210;2022-08-19T09:06:55;100681.09;;;22.90;72.91
12636;BME280;6383;50.830;7.210;2022-08-19T09:09:38;100672.06;;;22.97;73.32
12636;BME280;6383;50.830;7.210;2022-08-19T09:12:14;100680.41;;;23.00;71.89
12636;BME280;6383;50.830;7.210;2022-08-19T09:14:55;100682.47;;;23.07;71.53
12636;BME280;6383;50.830;7.210;2022-08-19T09:17:28;100684.91;;;23.12;70.93
12636;BME280;6383;50.830;7.210;2022-08-19T09:20:13;100676.59;;;23.15;70.70
12636;BME280;6383;50.830;7.210;2022-08-19T09:22:57;100678.22;;;23.20;70.97
12636;BME280;6383;50.830;7.210;2022-08-19T09:25:34;100679.06;;;23.24;69.95
12636;BME280;6383;50.830;7.210;2022-08-19T09:28:06;100682.25;;;23.26;68.15
12636;BME280;6383;50.830;7.210;2022-08-19T09:30:41;100687.03;;;23.29;68.08
12636;BME280;6383;50.830;7.210;2022-08-19T09:33:11;100670.38;;;23.33;68.04
12636;BME280;6383;50.830;7.210;2022-08-19T09:35:47;100672.81;;;23.38;68.35
12636;BME280;6383;50.830;7.210;2022-08-19T09:38:16;100664.16;;;23.43;67.99
12636;BME280;6383;50.830;7.210;2022-08-19T09:40:45;100672.75;;;23.27;69.80
12636;BME280;6383;50.830;7.210;2022-08-19T09:43:18;100677.25;;;23.46;67.64
12636;BME280;6383;50.830;7.210;2022-08-19T09:45:48;100670.97;;;23.52;67.58
12636;BME280;6383;50.830;7.210;2022-08-19T09:48:17;100668.25;;;23.60;67.38
12636;BME280;6383;50.830;7.210;2022-08-19T09:50:49;100662.72;;;23.63;66.66
12636;BME280;6383;50.830;7.210;2022-08-19T09:53:19;100670.69;;;23.68;67.25
12636;BME280;6383;50.830;7.210;2022-08-19T09:55:50;100669.13;;;23.71;67.08
12636;BME280;6383;50.830;7.210;2022-08-19T09:58:21;100669.94;;;23.75;67.12
12636;BME280;6383;50.830;7.210;2022-08-19T10:00:55;100677.50;;;23.78;66.33
12636;BME280;6383;50.830;7.210;2022-08-19T10:03:25;100667.22;;;23.82;66.03
12636;BME280;6383;50.830;7.210;2022-08-19T10:05:55;100665.25;;;23.86;66.42
12636;BME280;6383;50.830;7.210;2022-08-19T10:08:27;100655.75;;;23.90;66.49
12636;BME280;6383;50.830;7.210;2022-08-19T10:10:57;100667.31;;;23.96;65.85
12636;BME280;6383;50.830;7.210;2022-08-19T10:13:29;100679.66;;;24.02;65.53
12636;BME280;6383;50.830;7.210;2022-08-19T10:16:03;100678.84;;;24.05;65.95
12636;BME280;6383;50.830;7.210;2022-08-19T10:18:33;100679.69;;;24.09;65.04
12636;BME280;6383;50.830;7.210;2022-08-19T10:21:05;100674.16;;;24.16;64.16
12636;BME280;6383;50.830;7.210;2022-08-19T10:23:37;100670.59;;;24.19;64.86
12636;BME280;6383;50.830;7.210;2022-08-19T10:26:07;100664.69;;;24.24;64.49
12636;BME280;6383;50.830;7.210;2022-08-19T10:28:38;100663.13;;;24.31;64.07
12636;BME280;6383;50.830;7.210;2022-08-19T10:31:09;100645.84;;;25.08;60.20
12636;BME280;6383;50.830;7.210;2022-08-19T10:33:39;100651.34;;;24.80;61.22
12636;BME280;6383;50.830;7.210;2022-08-19T10:36:11;100638.63;;;24.72;62.38
12636;BME280;6383;50.830;7.210;2022-08-19T10:38:43;100647.75;;;24.69;62.04
12636;BME280;6383;50.830;7.210;2022-08-19T10:41:15;100650.13;;;24.70;61.74
12636;BME280;6383;50.830;7.210;2022-08-19T10:43:46;100654.09;;;24.69;61.78
12636;BME280;6383;50.830;7.210;2022-08-19T10:46:16;100659.69;;;24.69;61.57
12636;BME280;6383;50.830;7.210;2022-08-19T10:48:45;100647.34;;;24.70;62.01
12636;BME280;6383;50.830;7.210;2022-08-19T10:51:14;100652.53;;;24.72;60.25
12636;BME280;6383;50.830;7.210;2022-08-19T10:54:02;100636.25;;;24.74;59.66
12636;BME280;6383;50.830;7.210;2022-08-19T10:56:32;100642.63;;;24.78;59.71
12636;BME280;6383;50.830;7.210;2022-08-19T10:59:22;100639.41;;;24.79;60.02
12636;BME280;6383;50.830;7.210;2022-08-19T11:01:51;100634.25;;;24.81;59.73
12636;BME280;6383;50.830;7.210;2022-08-19T11:04:21;100636.25;;;24.84;59.75
12636;BME280;6383;50.830;7.210;2022-08-19T11:06:50;100637.84;;;24.85;58.84
12636;BME280;6383;50.830;7.210;2022-08-19T11:09:21;100639.44;;;24.90;58.43
12636;BME280;6383;50.830;7.210;2022-08-19T11:11:52;100627.94;;;24.95;58.16
12636;BME280;6383;50.830;7.210;2022-08-19T11:14:25;100633.50;;;24.99;57.59
12636;BME280;6383;50.830;7.210;2022-08-19T11:16:56;100637.88;;;25.00;57.35
12636;BME280;6383;50.830;7.210;2022-08-19T11:19:26;100633.50;;;24.99;56.93
12636;BME280;6383;50.830;7.210;2022-08-19T11:21:55;100630.72;;;24.99;56.78
12636;BME280;6383;50.830;7.210;2022-08-19T11:24:25;100629.94;;;24.98;56.49
12636;BME280;6383;50.830;7.210;2022-08-19T11:27:01;100617.19;;;24.97;56.71
12636;BME280;6383;50.830;7.210;2022-08-19T11:29:33;100622.78;;;25.01;56.84
12636;BME280;6383;50.830;7.210;2022-08-19T11:32:05;100617.22;;;25.04;57.59
12636;BME280;6383;50.830;7.210;2022-08-19T11:34:32;100617.22;;;25.08;56.22
12636;BME280;6383;50.830;7.210;2022-08-19T11:37:03;100610.03;;;25.10;56.33
12636;BME280;6383;50.830;7.210;2022-08-19T11:39:33;100618.41;;;25.14;55.93
12636;BME280;6383;50.830;7.210;2022-08-19T11:42:04;100619.59;;;25.16;56.08
12636;BME280;6383;50.830;7.210;2022-08-19T11:44:55;100614.81;;;25.20;55.91
12636;BME280;6383;50.830;7.210;2022-08-19T11:47:24;100620.38;;;25.24;55.22
12636;BME280;6383;50.830;7.210;2022-08-19T11:49:54;100618.38;;;25.28;55.66
12636;BME280;6383;50.830;7.210;2022-08-19T11:52:23;100615.22;;;25.29;54.79
12636;BME280;6383;50.830;7.210;2022-08-19T11:54:53;100612.81;;;25.32;54.06
12636;BME280;6383;50.830;7.210;2022-08-19T11:57:22;100605.66;;;25.34;54.68
12636;BME280;6383;50.830;7.210;2022-08-19T11:59:51;100608.84;;;25.36;53.87
12636;BME280;6383;50.830;7.210;2022-08-19T12:02:22;100613.59;;;25.39;53.56
12636;BME280;6383;50.830;7.210;2022-08-19T12:04:52;100611.63;;;25.43;54.05
12636;BME280;6383;50.830;7.210;2022-08-19T12:07:21;100600.06;;;25.48;54.46
12636;BME280;6383;50.830;7.210;2022-08-19T12:09:50;100615.16;;;25.54;54.81
12636;BME280;6383;50.830;7.210;2022-08-19T12:12:19;100610.41;;;25.62;54.75
12636;BME280;6383;50.830;7.210;2022-08-19T12:14:48;100608.78;;;25.68;53.93
12636;BME280;6383;50.830;7.210;2022-08-19T12:17:26;100606.41;;;25.74;53.50
12636;BME280;6383;50.830;7.210;2022-08-19T12:19:55;100602.41;;;25.78;54.26
12636;BME280;6383;50.830;7.210;2022-08-19T12:22:24;100601.19;;;25.83;53.27
12636;BME280;6383;50.830;7.210;2022-08-19T12:24:54;100602.78;;;25.87;52.35
12636;BME280;6383;50.830;7.210;2022-08-19T12:27:23;100601.19;;;25.93;52.19
12636;BME280;6383;50.830;7.210;2022-08-19T12:29:52;100592.81;;;25.97;51.39
12636;BME280;6383;50.830;7.210;2022-08-19T12:32:21;100588.78;;;26.02;50.78
12636;BME280;6383;50.830;7.210;2022-08-19T12:34:52;100586.78;;;26.09;50.04
12636;BME280;6383;50.830;7.210;2022-08-19T12:37:22;100577.16;;;26.14;50.47
12636;BME280;6383;50.830;7.210;2022-08-19T12:39:51;100571.97;;;26.19;49.99
12636;BME280;6383;50.830;7.210;2022-08-19T12:42:20;100581.13;;;26.23;49.76
12636;BME280;6383;50.830;7.210;2022-08-19T12:44:50;100575.53;;;26.30;49.11
12636;BME280;6383;50.830;7.210;2022-08-19T12:47:20;100583.09;;;26.33;47.78
12636;BME280;6383;50.830;7.210;2022-08-19T12:49:49;100579.47;;;26.37;47.26
12636;BME280;6383;50.830;7.210;2022-08-19T12:52:20;100574.25;;;26.42;48.01
12636;BME280;6383;50.830;7.210;2022-08-19T12:54:50;100577.44;;;26.44;48.36
12636;BME280;6383;50.830;7.210;2022-08-19T12:57:20;100578.59;;;26.50;48.25
12636;BME280;6383;50.830;7.210;2022-08-19T12:59:52;100575.00;;;26.53;48.75
12636;BME280;6383;50.830;7.210;2022-08-19T13:02:21;100576.19;;;26.56;48.52
12636;BME280;6383;50.830;7.210;2022-08-19T13:04:50;100566.56;;;26.60;48.06
12636;BME280;6383;50.830;7.210;2022-08-19T13:07:21;100560.16;;;26.67;47.57
12636;BME280;6383;50.830;7.210;2022-08-19T13:09:51;100560.91;;;26.71;47.45
12636;BME280;6383;50.830;7.210;2022-08-19T13:12:21;100564.88;;;26.74;47.64
12636;BME280;6383;50.830;7.210;2022-08-19T13:14:52;100560.47;;;26.76;47.07
12636;BME280;6383;50.830;7.210;2022-08-19T13:17:21;100568.41;;;26.81;47.16
12636;BME280;6383;50.830;7.210;2022-08-19T13:19:50;100566.41;;;26.85;45.53
12636;BME280;6383;50.830;7.210;2022-08-19T13:22:21;100555.16;;;26.89;45.50